Time;durP1;ratioP1;P1;durP2;ratioP2;P2;SDS_P1;SDS_P2;PMS_P1;PMS_P2;Temp;Humidity;BMP_temperature;BMP_pressure;BME280_temperature;BME280_humidity;BME280_pressure;Samples;Min_cycle;Max_cycle;Signal;HPM_P1;HPM_P2
2022/05/14 00:00:28;;;;;;;18.30;9.47;;;9.30;99.90;;;;;;4378337;28;658986;-69
2022/05/14 00:03:16;;;;;;;18.53;9.43;;;9.30;99.90;;;;;;4380932;28;657438;-69
2022/05/14 00:06:04;;;;;;;22.47;8.13;;;9.30;99.90;;;;;;4402794;28;658362;-69
2022/05/14 00:08:52;;;;;;;19.97;9.53;;;9.10;99.90;;;;;;4386692;28;657251;-69
2022/05/14 00:14:45;;;;;;;14.33;8.43;;;8.90;99.90;;;;;;4381231;28;657434;-69
2022/05/14 00:17:32;;;;;;;18.67;8.43;;;8.70;99.90;;;;;;4377567;28;658992;-69
2022/05/14 00:20:21;;;;;;;16.87;9.60;;;8.70;99.90;;;;;;4398142;28;657833;-69
2022/05/14 00:23:09;;;;;;;19.13;8.67;;;8.60;99.90;;;;;;4380595;28;658237;-69
2022/05/14 00:25:56;;;;;;;12.43;8.67;;;8.60;99.90;;;;;;4381704;28;657718;-69
2022/05/14 00:28:43;;;;;;;17.60;9.17;;;8.60;99.90;;;;;;4407714;28;658200;-69
2022/05/14 00:31:32;;;;;;;19.77;9.60;;;8.50;99.90;;;;;;4380815;28;657721;-69
2022/05/14 00:34:19;;;;;;;16.17;9.93;;;8.40;99.90;;;;;;4403820;28;657188;-69
2022/05/14 00:37:06;;;;;;;14.00;9.57;;;8.30;99.90;;;;;;4384800;28;657551;-69
2022/05/14 00:39:53;;;;;;;18.77;10.00;;;8.20;99.90;;;;;;4400437;28;658181;-69
2022/05/14 00:42:40;;;;;;;11.57;9.23;;;8.10;99.90;;;;;;4379305;28;658905;-69
2022/05/14 00:45:28;;;;;;;14.13;9.73;;;8.00;99.90;;;;;;4398497;28;658817;-69
2022/05/14 00:48:17;;;;;;;18.20;9.93;;;8.00;99.90;;;;;;4381916;28;657936;-69
2022/05/14 00:51:04;;;;;;;17.73;10.17;;;7.90;99.90;;;;;;4403465;28;657993;-69
2022/05/14 00:53:53;;;;;;;16.77;9.50;;;7.90;99.90;;;;;;4383810;28;659804;-69
2022/05/14 00:56:42;;;;;;;19.07;9.87;;;7.80;99.90;;;;;;4383295;28;657838;-69
2022/05/14 00:59:29;;;;;;;14.97;9.83;;;7.90;99.90;;;;;;4400696;28;658709;-69
2022/05/14 01:02:17;;;;;;;14.40;8.83;;;7.90;99.90;;;;;;4376384;28;657548;-69
2022/05/14 01:05:06;;;;;;;15.70;9.73;;;7.70;99.90;;;;;;4398813;28;657716;-69
2022/05/14 01:07:54;;;;;;;13.13;9.70;;;7.60;99.90;;;;;;4376045;28;658272;-69
2022/05/14 01:10:43;;;;;;;16.87;9.27;;;7.50;99.90;;;;;;4376954;28;657455;-70
2022/05/14 01:13:32;;;;;;;19.80;9.30;;;7.50;99.90;;;;;;4383691;28;657796;-69
2022/05/14 01:16:20;;;;;;;15.93;9.60;;;7.50;99.90;;;;;;4401994;28;657815;-70
2022/05/14 01:19:08;;;;;;;19.10;10.05;;;7.50;99.90;;;;;;4375509;28;658451;-69
2022/05/14 01:22:04;;;;;;;19.03;10.07;;;7.50;99.90;;;;;;4394572;28;659253;-69
2022/05/14 01:28:00;;;;;;;14.43;9.87;;;7.30;99.90;;;;;;4380051;28;657551;-69
2022/05/14 01:30:51;;;;;;;16.77;9.70;;;7.30;99.90;;;;;;4379632;28;658465;-69
2022/05/14 01:33:38;;;;;;;14.70;10.07;;;7.10;99.90;;;;;;4376101;28;658174;-69
2022/05/14 01:36:26;;;;;;;16.17;9.07;;;7.20;99.90;;;;;;4379003;28;658308;-69
2022/05/14 01:39:13;;;;;;;13.90;9.27;;;7.00;99.90;;;;;;4405133;28;658559;-69
2022/05/14 01:42:00;;;;;;;16.25;9.80;;;7.10;99.90;;;;;;4384208;28;657853;-70
2022/05/14 01:44:49;;;;;;;17.73;9.83;;;7.00;99.90;;;;;;4406502;28;657741;-69
2022/05/14 01:47:36;;;;;;;17.50;10.90;;;7.00;99.90;;;;;;4378884;28;657590;-69
2022/05/14 01:50:23;;;;;;;18.43;10.47;;;7.00;99.90;;;;;;4403631;28;659613;-69
2022/05/14 01:53:11;;;;;;;17.03;10.23;;;6.90;99.90;;;;;;4378991;28;658640;-69
2022/05/14 01:55:58;;;;;;;19.43;9.97;;;6.80;99.90;;;;;;4402271;28;660034;-69
2022/05/14 01:58:45;;;;;;;18.92;9.93;;;6.70;99.90;;;;;;4388586;28;657592;-69
2022/05/14 02:01:35;;;;;;;20.10;10.93;;;6.60;99.90;;;;;;4397545;28;659197;-69
2022/05/14 02:04:22;;;;;;;16.50;9.93;;;6.60;99.90;;;;;;4374859;28;659792;-69
2022/05/14 02:07:09;;;;;;;16.70;10.63;;;6.60;99.90;;;;;;4405314;28;657862;-69
2022/05/14 02:09:56;;;;;;;20.67;11.03;;;6.60;99.90;;;;;;4380378;28;659590;-69
2022/05/14 02:12:44;;;;;;;19.57;10.97;;;6.60;99.90;;;;;;4402658;28;659125;-69
2022/05/14 02:15:31;;;;;;;18.53;11.10;;;6.60;99.90;;;;;;4384623;28;658583;-69
2022/05/14 02:18:20;;;;;;;23.53;10.93;;;6.60;99.90;;;;;;4400663;28;659599;-69
2022/05/14 02:21:07;;;;;;;23.67;11.27;;;6.60;99.90;;;;;;4383357;28;659087;-70
2022/05/14 02:23:55;;;;;;;16.97;10.23;;;6.50;99.90;;;;;;4400788;28;658519;-69
2022/05/14 02:26:42;;;;;;;20.73;10.63;;;6.40;99.90;;;;;;4380899;28;659516;-69
2022/05/14 02:29:50;;;;;;;18.37;10.60;;;6.40;99.90;;;;;;4395848;28;659403;-69
2022/05/14 02:32:38;;;;;;;18.67;11.07;;;6.40;99.90;;;;;;4382666;28;658900;-70
2022/05/14 02:35:27;;;;;;;20.77;11.40;;;6.50;99.90;;;;;;4394501;28;658868;-70
2022/05/14 02:38:15;;;;;;;23.37;12.17;;;6.40;99.90;;;;;;4403629;28;658232;-70
2022/05/14 02:41:02;;;;;;;19.50;11.20;;;6.30;99.90;;;;;;4387357;28;659500;-70
2022/05/14 02:43:49;;;;;;;19.17;10.50;;;6.30;99.90;;;;;;4405577;28;658657;-70
2022/05/14 02:46:36;;;;;;;20.03;11.10;;;6.20;99.90;;;;;;4387218;28;658308;-70
2022/05/14 02:49:24;;;;;;;20.33;10.73;;;6.20;99.90;;;;;;4394017;28;658651;-70
2022/05/14 02:52:12;;;;;;;14.83;10.80;;;6.20;99.90;;;;;;4488929;28;658949;-70
2022/05/14 02:54:59;;;;;;;17.63;10.50;;;6.20;99.90;;;;;;4410525;28;658396;-70
2022/05/14 02:57:47;;;;;;;18.33;11.37;;;6.20;99.90;;;;;;4385767;28;659341;-70
2022/05/14 03:00:34;;;;;;;19.07;11.47;;;6.20;99.90;;;;;;4407676;28;658549;-70
2022/05/14 03:03:21;;;;;;;18.70;11.83;;;6.10;99.90;;;;;;4384389;28;658591;-70
2022/05/14 03:06:08;;;;;;;17.63;11.23;;;6.10;99.90;;;;;;4406450;28;659614;-70
2022/05/14 03:08:57;;;;;;;20.67;11.60;;;6.10;99.90;;;;;;4382677;28;658790;-70
2022/05/14 03:11:44;;;;;;;22.38;11.82;;;6.10;99.90;;;;;;4401264;28;658351;-70
2022/05/14 03:14:31;;;;;;;17.13;11.00;;;6.20;99.90;;;;;;4383801;28;658504;-70
2022/05/14 03:17:19;;;;;;;19.88;11.77;;;6.20;99.90;;;;;;4406011;28;659235;-70
2022/05/14 03:20:07;;;;;;;23.43;11.87;;;6.20;99.90;;;;;;4386743;28;658830;-70
2022/05/14 03:22:55;;;;;;;21.93;12.33;;;6.20;99.90;;;;;;4404022;28;659326;-70
2022/05/14 03:25:44;;;;;;;17.23;11.60;;;6.30;99.90;;;;;;4405918;28;658500;-70
2022/05/14 03:28:31;;;;;;;19.63;11.57;;;6.30;99.90;;;;;;4384010;28;658991;-69
2022/05/14 03:31:18;;;;;;;19.63;11.03;;;6.30;99.90;;;;;;4403128;28;658624;-70
2022/05/14 03:34:05;;;;;;;19.33;11.73;;;6.40;99.90;;;;;;4386080;28;658824;-70
2022/05/14 03:36:53;;;;;;;18.77;11.20;;;6.40;99.90;;;;;;4403617;28;659053;-70
2022/05/14 03:39:40;;;;;;;22.63;11.67;;;6.50;99.90;;;;;;4396913;28;658832;-70
2022/05/14 03:42:29;;;;;;;21.17;11.77;;;6.60;99.90;;;;;;4407402;28;658631;-70
2022/05/14 03:45:16;;;;;;;18.03;12.03;;;6.70;99.90;;;;;;4375472;28;658427;-70
2022/05/14 03:48:03;;;;;;;21.70;11.77;;;6.70;99.90;;;;;;4403415;28;659606;-70
2022/05/14 03:50:50;;;;;;;22.83;12.50;;;6.80;99.90;;;;;;4376506;28;660012;-70
2022/05/14 03:53:38;;;;;;;19.23;12.40;;;6.90;99.90;;;;;;4400534;28;659555;-70
2022/05/14 03:56:25;;;;;;;23.08;12.80;;;7.00;99.90;;;;;;4379458;28;658478;-70
2022/05/14 03:59:14;;;;;;;16.90;11.97;;;7.20;99.90;;;;;;4405304;28;660063;-70
2022/05/14 04:02:01;;;;;;;18.63;12.23;;;7.30;99.90;;;;;;4375279;28;658505;-70
2022/05/14 04:04:49;;;;;;;22.27;11.10;;;7.50;99.90;;;;;;4406250;28;659367;-70
2022/05/14 04:07:36;;;;;;;19.27;11.40;;;7.60;99.90;;;;;;4377042;28;658745;-70
2022/05/14 04:10:23;;;;;;;18.63;11.20;;;7.80;99.90;;;;;;4407707;28;659692;-70
2022/05/14 04:13:11;;;;;;;21.17;11.37;;;7.90;99.90;;;;;;4386866;28;659073;-70
2022/05/14 04:16:00;;;;;;;19.87;11.23;;;8.00;99.90;;;;;;4399986;28;659057;-70
2022/05/14 04:18:47;;;;;;;19.38;10.63;;;8.30;99.90;;;;;;4385000;28;659340;-70
2022/05/14 04:21:34;;;;;;;20.33;10.77;;;8.50;99.90;;;;;;4398992;28;658880;-70
2022/05/14 04:24:22;;;;;;;20.03;11.27;;;8.70;99.90;;;;;;4381982;28;658975;-70
2022/05/14 04:27:09;;;;;;;25.43;10.07;;;8.90;99.90;;;;;;4393962;28;658905;-70
2022/05/14 04:29:56;;;;;;;18.67;9.93;;;9.00;99.90;;;;;;4378633;28;659228;-70
2022/05/14 04:32:45;;;;;;;20.63;9.80;;;9.30;99.90;;;;;;4403575;28;658170;-70
2022/05/14 04:35:32;;;;;;;19.57;9.47;;;9.60;99.90;;;;;;4377694;28;658559;-70
2022/05/14 04:38:19;;;;;;;13.40;6.80;;;9.90;99.90;;;;;;4402719;28;657126;-70
2022/05/14 04:41:06;;;;;;;14.90;6.27;;;10.30;99.90;;;;;;4381034;28;657931;-69
2022/05/14 04:43:53;;;;;;;10.77;6.40;;;10.60;99.90;;;;;;4398963;28;658759;-69
2022/05/14 04:46:41;;;;;;;17.57;6.23;;;10.80;99.90;;;;;;4385245;28;658903;-70
2022/05/14 04:49:29;;;;;;;13.80;6.90;;;11.10;99.90;;;;;;4402133;28;659110;-70
2022/05/14 04:52:17;;;;;;;10.80;6.70;;;11.30;99.90;;;;;;4377590;28;659321;-70
2022/05/14 04:55:04;;;;;;;17.33;7.20;;;11.50;99.90;;;;;;4402830;28;658642;-70
2022/05/14 04:57:51;;;;;;;15.77;7.37;;;11.60;99.90;;;;;;4380977;28;659436;-69
2022/05/14 05:00:39;;;;;;;16.77;6.83;;;11.80;99.90;;;;;;4397750;28;659813;-70
2022/05/14 05:03:27;;;;;;;16.43;6.27;;;11.90;99.90;;;;;;4378366;28;658670;-70
2022/05/14 05:06:18;;;;;;;14.23;6.53;;;12.00;99.90;;;;;;4400500;28;658710;-69
2022/05/14 05:09:05;;;;;;;16.60;5.70;;;12.20;99.90;;;;;;4359034;28;660051;-70
2022/05/14 05:11:52;;;;;;;7.83;5.03;;;12.30;99.90;;;;;;4402902;28;659644;-70
2022/05/14 05:14:41;;;;;;;17.23;5.80;;;12.40;99.90;;;;;;4398394;28;657804;-70
2022/05/14 05:17:28;;;;;;;21.53;5.70;;;12.50;99.90;;;;;;4398682;28;659917;-70
2022/05/14 05:20:15;;;;;;;16.45;5.75;;;12.60;99.90;;;;;;4370805;28;658654;-70
2022/05/14 05:23:04;;;;;;;15.67;5.37;;;12.70;99.90;;;;;;4404058;28;659413;-70
2022/05/14 05:25:51;;;;;;;15.97;5.17;;;12.80;99.90;;;;;;4379419;28;659552;-70
2022/05/14 05:28:38;;;;;;;10.43;5.13;;;12.90;99.90;;;;;;4398913;28;659844;-70
2022/05/14 05:31:25;;;;;;;10.03;5.10;;;13.00;99.90;;;;;;4377993;28;659220;-70
2022/05/14 05:34:13;;;;;;;17.17;4.93;;;13.10;99.90;;;;;;4414833;28;660207;-66
2022/05/14 05:37:00;;;;;;;14.20;4.60;;;13.20;99.90;;;;;;4394217;28;658783;-66
2022/05/14 05:39:49;;;;;;;11.77;4.50;;;13.40;99.90;;;;;;4402379;28;659215;-66
2022/05/14 05:42:36;;;;;;;10.18;4.47;;;13.40;99.90;;;;;;4379302;28;658536;-66
2022/05/14 05:45:23;;;;;;;16.33;4.33;;;13.40;99.90;;;;;;4403238;28;660359;-67
2022/05/14 05:48:11;;;;;;;9.43;3.90;;;13.50;99.90;;;;;;4382219;28;658757;-66
2022/05/14 05:50:58;;;;;;;12.57;4.73;;;13.70;99.90;;;;;;4407932;28;658400;-66
2022/05/14 05:56:56;;;;;;;13.87;4.30;;;13.80;99.90;;;;;;4368802;28;657930;-66
2022/05/14 05:59:43;;;;;;;9.40;4.00;;;13.80;99.90;;;;;;4377957;28;659120;-66
2022/05/14 06:02:30;;;;;;;12.37;5.17;;;13.90;99.90;;;;;;4377935;28;658856;-66
2022/05/14 06:05:18;;;;;;;11.33;4.83;;;13.90;99.90;;;;;;4403776;28;659035;-66
2022/05/14 06:08:07;;;;;;;12.50;4.47;;;14.00;99.90;;;;;;4393779;28;660856;-67
2022/05/14 06:10:55;;;;;;;12.43;3.73;;;14.10;98.70;;;;;;4403718;28;658200;-66
2022/05/14 06:13:44;;;;;;;10.40;3.57;;;14.30;99.90;;;;;;4407083;28;658808;-66
2022/05/14 06:16:31;;;;;;;8.53;2.80;;;14.40;99.90;;;;;;4379834;28;658453;-66
2022/05/14 06:19:18;;;;;;;7.80;2.93;;;14.20;99.90;;;;;;4400727;28;658313;-66
2022/05/14 06:22:06;;;;;;;9.47;3.70;;;14.30;99.90;;;;;;4379489;28;658766;-66
2022/05/14 06:24:53;;;;;;;10.87;3.87;;;14.40;96.00;;;;;;4400204;28;658655;-66
2022/05/14 06:27:40;;;;;;;13.13;3.30;;;14.50;99.90;;;;;;4381588;28;658708;-66
2022/05/14 06:30:30;;;;;;;8.60;2.73;;;14.40;99.80;;;;;;4404400;28;658366;-66
2022/05/14 06:33:18;;;;;;;8.07;2.72;;;14.70;99.90;;;;;;4387062;28;657460;-66
2022/05/14 06:36:05;;;;;;;9.87;2.60;;;14.50;99.90;;;;;;4385268;28;658407;-66
2022/05/14 06:38:53;;;;;;;9.77;2.70;;;14.60;96.60;;;;;;4398639;28;659948;-66
2022/05/14 06:41:40;;;;;;;5.83;2.70;;;14.60;99.90;;;;;;4391376;28;657601;-66
2022/05/14 06:44:27;;;;;;;8.47;2.10;;;14.70;93.60;;;;;;4405937;28;658019;-66
2022/05/14 06:47:17;;;;;;;9.00;2.00;;;14.60;94.30;;;;;;4398320;28;657303;-66
2022/05/14 06:50:05;;;;;;;5.57;1.93;;;15.00;93.80;;;;;;4416933;28;658135;-66
2022/05/14 06:52:54;;;;;;;7.07;2.53;;;15.20;92.80;;;;;;4371569;28;658158;-66
2022/05/14 06:55:42;;;;;;;5.93;1.93;;;15.30;94.80;;;;;;4380861;28;658627;-66
2022/05/14 06:58:32;;;;;;;5.03;1.97;;;15.40;92.90;;;;;;4412638;28;657608;-66
2022/05/14 07:01:19;;;;;;;7.83;2.40;;;15.40;90.90;;;;;;4379468;28;657935;-66
2022/05/14 07:07:13;;;;;;;8.20;2.27;;;15.50;93.50;;;;;;4382697;28;657916;-66
2022/05/14 07:10:02;;;;;;;6.63;2.50;;;15.10;92.70;;;;;;4384807;28;657820;-66
2022/05/14 07:12:49;;;;;;;12.13;2.67;;;14.90;91.90;;;;;;4406447;28;657638;-67
2022/05/14 07:15:38;;;;;;;5.50;2.50;;;14.80;95.00;;;;;;4383527;28;658443;-66
2022/05/14 07:18:25;;;;;;;9.30;2.50;;;15.10;90.90;;;;;;4395227;28;657496;-66
2022/05/14 07:21:14;;;;;;;4.37;2.60;;;15.60;90.20;;;;;;4406906;28;658173;-66
2022/05/14 07:24:03;;;;;;;9.47;2.47;;;15.70;87.40;;;;;;4386861;28;658046;-66
2022/05/14 07:26:51;;;;;;;11.60;2.60;;;15.80;85.40;;;;;;4390140;28;657693;-67
2022/05/14 07:29:40;;;;;;;6.43;2.60;;;15.70;90.20;;;;;;4406975;28;659323;-66
2022/05/14 07:32:27;;;;;;;7.57;2.80;;;15.90;84.40;;;;;;4382627;28;659650;-66
2022/05/14 07:35:14;;;;;;;8.50;2.50;;;16.10;82.20;;;;;;4393389;28;658186;-66
2022/05/14 07:38:03;;;;;;;8.17;2.50;;;15.90;80.30;;;;;;4370428;28;657644;-66
2022/05/14 07:40:51;;;;;;;13.10;2.53;;;15.70;89.30;;;;;;4373914;28;657936;-66
2022/05/14 07:43:38;;;;;;;5.83;2.30;;;15.40;88.30;;;;;;4396139;28;659021;-66
2022/05/14 07:46:28;;;;;;;6.47;1.87;;;15.30;88.80;;;;;;4380564;28;657568;-66
2022/05/14 07:49:16;;;;;;;8.07;2.80;;;15.70;83.60;;;;;;4391227;28;657272;-67
2022/05/14 07:52:03;;;;;;;9.70;2.57;;;16.00;82.10;;;;;;4400422;28;658278;-68
2022/05/14 07:54:52;;;;;;;8.27;2.43;;;16.70;83.40;;;;;;4382739;28;657206;-67
2022/05/14 07:57:39;;;;;;;9.10;2.63;;;16.50;77.50;;;;;;4395118;28;657376;-66
2022/05/14 08:00:26;;;;;;;8.83;2.93;;;16.40;82.40;;;;;;4370849;28;657494;-68
2022/05/14 08:03:14;;;;;;;4.17;2.23;;;16.60;77.00;;;;;;4382880;28;658116;-67
2022/05/14 08:06:01;;;;;;;8.33;2.73;;;16.80;74.60;;;;;;4373448;28;657515;-67
2022/05/14 08:08:48;;;;;;;6.97;2.67;;;16.70;73.70;;;;;;4395614;28;657823;-67
2022/05/14 08:11:37;;;;;;;8.33;2.77;;;16.10;79.60;;;;;;4376450;28;657625;-67
2022/05/14 08:14:25;;;;;;;7.70;2.70;;;16.20;85.60;;;;;;4382584;28;657274;-67
2022/05/14 08:17:12;;;;;;;8.93;3.27;;;16.30;80.40;;;;;;4369294;28;658535;-67
2022/05/14 08:20:00;;;;;;;11.20;3.67;;;16.40;80.60;;;;;;4389895;28;657983;-67
2022/05/14 08:25:53;;;;;;;23.90;3.07;;;16.60;76.90;;;;;;4351456;28;658892;-68
2022/05/14 08:28:42;;;;;;;11.03;3.30;;;16.50;86.60;;;;;;4364556;28;658371;-67
2022/05/14 08:31:29;;;;;;;7.57;3.13;;;16.10;80.70;;;;;;4389390;28;659929;-68
2022/05/14 08:34:16;;;;;;;8.77;2.97;;;16.20;80.10;;;;;;4379455;28;657491;-67
2022/05/14 08:37:04;;;;;;;11.03;2.63;;;16.80;83.70;;;;;;4396969;28;658385;-67
2022/05/14 08:39:51;;;;;;;4.60;1.50;;;16.30;76.90;;;;;;4375642;28;659106;-67
2022/05/14 08:42:38;;;;;;;9.83;2.23;;;16.00;76.30;;;;;;4409370;28;658063;-67
2022/05/14 08:45:27;;;;;;;10.50;2.20;;;16.30;73.60;;;;;;4385616;28;657895;-67
2022/05/14 08:48:16;;;;;;;6.70;2.50;;;17.20;79.70;;;;;;4392194;28;659099;-67
2022/05/14 08:51:04;;;;;;;6.20;2.20;;;16.80;78.70;;;;;;4370905;28;658591;-67
2022/05/14 08:53:51;;;;;;;9.30;2.33;;;16.10;77.40;;;;;;4375437;28;658129;-67
2022/05/14 08:56:42;;;;;;;6.60;2.03;;;15.90;82.00;;;;;;4400097;28;658672;-67
2022/05/14 08:59:48;;;;;;;5.30;2.03;;;16.60;81.10;;;;;;4376845;28;657403;-67
2022/05/14 09:02:38;;;;;;;6.38;2.40;;;16.90;77.30;;;;;;4351659;28;657963;-67
2022/05/14 09:05:27;;;;;;;11.53;2.60;;;17.40;73.60;;;;;;4377936;28;657488;-67
2022/05/14 09:08:15;;;;;;;10.67;2.87;;;16.90;74.10;;;;;;4391896;28;658847;-67
2022/05/14 09:11:06;;;;;;;9.67;2.70;;;16.60;76.50;;;;;;4369357;28;659705;-67
2022/05/14 09:13:54;;;;;;;7.73;2.40;;;16.70;76.30;;;;;;4371914;28;658496;-67
2022/05/14 09:16:41;;;;;;;7.80;2.37;;;16.60;83.70;;;;;;4380764;28;658083;-67
2022/05/14 09:19:35;;;;;;;5.57;1.90;;;16.90;78.40;;;;;;4404962;28;658680;-67
2022/05/14 09:22:29;;;;;;;8.30;1.97;;;16.90;75.20;;;;;;4420895;28;657887;-68
2022/05/14 09:25:20;;;;;;;2.77;1.50;;;17.10;74.70;;;;;;4355645;28;658672;-68
2022/05/14 09:28:09;;;;;;;7.33;2.17;;;17.40;73.90;;;;;;4381668;28;659064;-67
2022/05/14 09:30:58;;;;;;;5.57;2.17;;;17.80;70.50;;;;;;4388866;28;657860;-67
2022/05/14 09:33:45;;;;;;;5.63;2.38;;;17.30;69.10;;;;;;4390245;28;658408;-67
2022/05/14 09:36:36;;;;;;;11.17;2.00;;;17.10;72.50;;;;;;4400199;28;659110;-67
2022/05/14 09:39:24;;;;;;;14.57;2.70;;;17.10;71.50;;;;;;4382944;28;658986;-67
2022/05/14 09:42:24;;;;;;;9.77;2.13;;;17.00;80.10;;;;;;4372980;28;658606;-67
2022/05/14 09:45:27;;;;;;;10.40;2.30;;;17.00;78.50;;;;;;4354709;28;658876;-67
2022/05/14 09:48:18;;;;;;;5.90;2.20;;;17.50;75.40;;;;;;4371132;28;658797;-67
2022/05/14 09:51:06;;;;;;;6.33;2.10;;;17.50;67.40;;;;;;4358868;28;657269;-67
2022/05/14 09:53:55;;;;;;;4.60;1.93;;;17.40;65.20;;;;;;4401177;28;658360;-67
2022/05/14 09:57:02;;;;;;;6.67;1.87;;;17.00;65.80;;;;;;4387095;28;659033;-67
2022/05/14 10:00:06;;;;;;;5.17;1.70;;;16.80;70.70;;;;;;4381119;28;657479;-67
2022/05/14 10:03:05;;;;;;;9.37;1.87;;;17.30;70.00;;;;;;4379543;28;657945;-67
2022/05/14 10:05:58;;;;;;;4.40;1.87;;;18.10;66.70;;;;;;4381449;28;658016;-67
2022/05/14 10:08:51;;;;;;;8.33;2.10;;;18.60;67.40;;;;;;4365557;28;657371;-67
2022/05/14 10:11:44;;;;;;;8.17;1.90;;;19.00;63.40;;;;;;4386567;28;658884;-67
2022/05/14 10:14:37;;;;;;;6.30;2.13;;;18.80;59.70;;;;;;4389519;28;657853;-67
2022/05/14 10:17:34;;;;;;;2.90;1.53;;;18.70;61.00;;;;;;4377392;28;660313;-67
2022/05/14 10:20:37;;;;;;;4.82;1.50;;;18.50;59.40;;;;;;4351317;28;658572;-67
2022/05/14 10:26:50;;;;;;;3.30;1.70;;;17.90;59.20;;;;;;4359002;28;658010;-67
2022/05/14 10:29:44;;;;;;;8.60;2.13;;;17.30;65.10;;;;;;4373598;28;659022;-67
2022/05/14 10:32:32;;;;;;;7.47;2.27;;;17.50;66.00;;;;;;4351425;28;657811;-67
2022/05/14 10:35:24;;;;;;;9.57;1.87;;;18.30;62.40;;;;;;4389846;28;657305;-67
2022/05/14 10:38:15;;;;;;;10.40;2.17;;;18.20;59.70;;;;;;4385465;28;657841;-67
2022/05/14 10:41:04;;;;;;;8.33;1.70;;;17.90;62.70;;;;;;4388623;28;659117;-67
2022/05/14 10:43:55;;;;;;;5.80;2.00;;;17.50;62.60;;;;;;4381712;28;657861;-67
2022/05/14 10:46:42;;;;;;;6.53;1.97;;;17.40;65.90;;;;;;4381406;28;658724;-68
2022/05/14 10:49:36;;;;;;;6.47;1.80;;;18.40;60.80;;;;;;4405233;28;657633;-67
2022/05/14 10:52:23;;;;;;;6.00;1.80;;;19.50;64.00;;;;;;4382888;28;657857;-67
2022/05/14 10:55:18;;;;;;;4.43;1.40;;;19.00;59.20;;;;;;4381657;28;657961;-67
2022/05/14 10:58:07;;;;;;;7.73;2.20;;;18.60;58.80;;;;;;4361648;28;659428;-67
2022/05/14 11:00:55;;;;;;;7.43;2.17;;;18.60;58.80;;;;;;4404257;28;657703;-67
2022/05/14 11:03:44;;;;;;;7.00;2.03;;;18.30;59.80;;;;;;4385375;28;658758;-66
2022/05/14 11:06:32;;;;;;;6.80;1.83;;;17.90;61.20;;;;;;4378369;28;658778;-67
2022/05/14 11:09:20;;;;;;;4.13;1.70;;;18.30;63.70;;;;;;4404455;28;660661;-67
2022/05/14 11:12:09;;;;;;;10.70;2.57;;;19.10;60.90;;;;;;4379522;28;658056;-67
2022/05/14 11:14:57;;;;;;;6.60;2.30;;;18.80;57.60;;;;;;4378671;28;658790;-67
2022/05/14 11:17:47;;;;;;;4.70;1.67;;;18.40;59.30;;;;;;4398704;28;658069;-67
2022/05/14 11:20:34;;;;;;;8.53;2.10;;;17.60;58.90;;;;;;4401657;28;657374;-67
2022/05/14 11:23:21;;;;;;;5.07;1.92;;;18.90;62.10;;;;;;4375826;28;657455;-68
2022/05/14 11:26:11;;;;;;;11.00;2.47;;;19.00;58.70;;;;;;4398795;28;658098;-67
2022/05/14 11:29:00;;;;;;;5.93;1.80;;;18.30;60.00;;;;;;4375459;28;659880;-67
2022/05/14 11:31:52;;;;;;;7.47;1.90;;;19.00;62.50;;;;;;4376322;28;657713;-67
2022/05/14 11:34:51;;;;;;;7.47;1.90;;;18.90;59.50;;;;;;4402929;28;657960;-67
2022/05/14 11:37:39;;;;;;;7.83;1.87;;;18.60;59.00;;;;;;4377241;28;658132;-67
2022/05/14 11:40:28;;;;;;;4.93;2.20;;;18.40;60.80;;;;;;4381276;28;657571;-67
2022/05/14 11:43:23;;;;;;;9.23;2.13;;;19.30;59.20;;;;;;4383307;28;657803;-67
2022/05/14 11:46:21;;;;;;;9.97;2.03;;;19.60;58.60;;;;;;4353381;28;657849;-67
2022/05/14 11:49:11;;;;;;;11.87;2.27;;;19.30;57.90;;;;;;4376625;28;657371;-67
2022/05/14 11:52:05;;;;;;;7.13;1.70;;;18.40;58.70;;;;;;4386680;28;659201;-67
2022/05/14 11:54:54;;;;;;;10.70;2.53;;;17.90;60.80;;;;;;4358829;28;657918;-68
2022/05/14 11:57:43;;;;;;;10.77;2.57;;;17.90;60.90;;;;;;4382712;28;658934;-67
2022/05/14 12:00:32;;;;;;;7.83;2.00;;;17.70;60.90;;;;;;4391101;28;658232;-67
2022/05/14 12:03:21;;;;;;;8.20;2.40;;;17.90;62.00;;;;;;4397603;28;657223;-67
2022/05/14 12:06:18;;;;;;;10.57;2.50;;;18.90;61.40;;;;;;4390041;28;658472;-67
2022/05/14 12:09:16;;;;;;;7.23;2.27;;;19.60;57.40;;;;;;4354702;28;659215;-67
2022/05/14 12:12:05;;;;;;;7.50;2.10;;;19.60;57.40;;;;;;4374684;28;658266;-67
2022/05/14 12:14:52;;;;;;;7.33;2.27;;;19.40;58.90;;;;;;4383911;28;658018;-68
2022/05/14 12:17:46;;;;;;;10.67;2.47;;;19.60;57.60;;;;;;4393258;28;657890;-67
2022/05/14 12:20:34;;;;;;;7.47;2.10;;;19.60;59.80;;;;;;4373193;28;659683;-67
2022/05/14 12:23:31;;;;;;;7.63;2.53;;;19.60;58.00;;;;;;4383432;28;657499;-67
2022/05/14 12:26:21;;;;;;;5.53;2.10;;;19.70;55.60;;;;;;4381558;28;657948;-67
2022/05/14 12:29:15;;;;;;;12.47;1.93;;;18.90;55.20;;;;;;4376004;28;657844;-67
2022/05/14 12:35:17;;;;;;;5.00;1.80;;;18.40;56.60;;;;;;4376102;28;657779;-67
2022/05/14 12:38:05;;;;;;;10.23;2.10;;;18.50;57.70;;;;;;4381079;28;658787;-67
2022/05/14 12:40:52;;;;;;;5.80;1.80;;;18.70;59.30;;;;;;4381641;28;659123;-67
2022/05/14 12:43:42;;;;;;;8.17;2.20;;;19.40;59.30;;;;;;4398623;28;658074;-67
2022/05/14 12:46:30;;;;;;;7.00;1.77;;;19.00;57.40;;;;;;4376976;28;657821;-68
2022/05/14 12:49:21;;;;;;;7.37;2.30;;;18.50;56.50;;;;;;4405470;28;657891;-67
2022/05/14 12:52:10;;;;;;;9.03;2.30;;;18.50;57.00;;;;;;4377399;28;659103;-67
2022/05/14 12:55:00;;;;;;;8.03;2.03;;;18.60;58.40;;;;;;4374057;28;659206;-68
2022/05/14 12:57:47;;;;;;;14.63;2.53;;;18.70;57.70;;;;;;4376287;28;657561;-68
2022/05/14 13:00:37;;;;;;;6.50;2.23;;;18.60;57.80;;;;;;4399426;28;658701;-67
2022/05/14 13:03:27;;;;;;;8.27;2.40;;;19.40;58.10;;;;;;4396156;28;657801;-68
2022/05/14 13:06:16;;;;;;;10.47;2.67;;;20.20;58.10;;;;;;4381602;28;658239;-68
2022/05/14 13:09:07;;;;;;;8.97;2.83;;;20.60;54.10;;;;;;4378487;28;659523;-68
2022/05/14 13:11:56;;;;;;;5.07;2.47;;;20.40;56.30;;;;;;4372179;28;657747;-67
2022/05/14 13:14:48;;;;;;;9.30;2.80;;;20.50;53.40;;;;;;4380414;28;658085;-68
2022/05/14 13:17:37;;;;;;;5.97;2.67;;;20.50;52.90;;;;;;4357449;28;657443;-67
2022/05/14 13:20:25;;;;;;;9.27;3.10;;;20.20;53.50;;;;;;4399968;28;658053;-68
2022/05/14 13:23:17;;;;;;;5.67;2.53;;;20.30;54.10;;;;;;4391503;28;657782;-68
2022/05/14 13:26:05;;;;;;;12.17;3.17;;;21.40;54.30;;;;;;4373174;28;657345;-67
2022/05/14 13:28:52;;;;;;;8.67;3.00;;;21.30;51.60;;;;;;4382598;28;659419;-67
2022/05/14 13:31:39;;;;;;;11.07;2.70;;;21.50;53.10;;;;;;4395180;28;657994;-67
2022/05/14 13:37:35;;;;;;;5.53;2.50;;;19.80;54.00;;;;;;4371634;28;659204;-67
2022/05/14 13:40:23;;;;;;;7.53;2.80;;;19.40;54.20;;;;;;4371186;28;659085;-67
2022/05/14 13:43:12;;;;;;;5.87;2.77;;;20.00;54.20;;;;;;4379487;28;657999;-67
2022/05/14 13:46:02;;;;;;;11.23;3.00;;;20.40;54.30;;;;;;4393069;28;657724;-67
2022/05/14 13:48:49;;;;;;;11.07;3.00;;;20.10;55.40;;;;;;4397031;28;661321;-68
2022/05/14 13:51:38;;;;;;;11.43;3.00;;;20.30;54.30;;;;;;4383671;28;658600;-67
2022/05/14 13:54:33;;;;;;;6.88;2.70;;;20.20;54.90;;;;;;4376988;28;658789;-67
2022/05/14 13:57:24;;;;;;;8.47;3.17;;;20.80;52.80;;;;;;4384022;28;657835;-67
2022/05/14 14:00:18;;;;;;;5.00;2.37;;;21.20;53.20;;;;;;4378003;28;657913;-67
2022/05/14 14:03:07;;;;;;;9.40;2.83;;;20.70;50.60;;;;;;4367859;28;657612;-68
2022/05/14 14:05:54;;;;;;;10.90;3.47;;;21.10;50.60;;;;;;4396812;28;657848;-68
2022/05/14 14:08:43;;;;;;;6.30;2.60;;;21.40;53.30;;;;;;4376467;28;659375;-67
2022/05/14 14:11:30;;;;;;;9.37;2.70;;;21.30;51.10;;;;;;4392277;28;657487;-67
2022/05/14 14:14:17;;;;;;;9.73;2.73;;;20.80;51.50;;;;;;4403741;28;657951;-67
2022/05/14 14:17:05;;;;;;;7.53;3.03;;;20.70;52.30;;;;;;4404663;28;657065;-67
2022/05/14 14:19:52;;;;;;;12.80;3.50;;;20.40;53.20;;;;;;4380925;28;658199;-66
2022/05/14 14:22:39;;;;;;;8.60;3.43;;;19.60;52.70;;;;;;4394869;28;658771;-67
2022/05/14 14:25:28;;;;;;;7.70;3.07;;;19.50;53.40;;;;;;4376900;28;657631;-67
2022/05/14 14:28:16;;;;;;;9.37;3.30;;;19.40;54.80;;;;;;4377242;28;657604;-67
2022/05/14 14:31:03;;;;;;;6.82;2.90;;;19.40;54.80;;;;;;4397550;28;658190;-67
2022/05/14 14:33:50;;;;;;;7.60;2.97;;;20.30;56.50;;;;;;4380814;28;657546;-67
2022/05/14 14:36:37;;;;;;;12.17;3.57;;;21.20;55.30;;;;;;4395833;28;658951;-67
2022/05/14 14:39:25;;;;;;;7.87;2.77;;;21.20;51.30;;;;;;4389241;28;658218;-67
2022/05/14 14:42:14;;;;;;;4.43;2.37;;;21.20;52.50;;;;;;4395582;28;658296;-67
2022/05/14 14:45:01;;;;;;;7.20;3.23;;;21.30;50.80;;;;;;4378656;28;658840;-67
2022/05/14 14:47:49;;;;;;;3.57;2.27;;;21.40;53.80;;;;;;4386663;28;658453;-67